createdAt,value
2018-10-19T00:00:12.360Z,108.13
2018-10-19T00:02:43.282Z,109.40
2018-10-19T00:05:13.600Z,101.87
2018-10-19T00:07:44.966Z,105.50
2018-10-19T00:10:16.187Z,108.20
2018-10-19T00:12:46.881Z,101.10
2018-10-19T00:15:17.553Z,104.80
2018-10-19T00:17:48.522Z,112.57
2018-10-19T00:20:19.263Z,109.00
2018-10-19T00:22:49.838Z,113.13
2018-10-19T00:25:20.347Z,112.43
2018-10-19T00:27:51.267Z,115.90
2018-10-19T00:30:21.654Z,116.23
2018-10-19T00:32:51.931Z,118.77
2018-10-19T00:35:23.192Z,122.97
2018-10-19T00:37:53.733Z,112.90
2018-10-19T00:40:25.300Z,118.23
2018-10-19T00:42:56.322Z,118.70
2018-10-19T00:45:47.391Z,117.77
2018-10-19T00:48:19.202Z,111.60
2018-10-19T00:50:50.510Z,116.00
2018-10-19T00:53:21.523Z,112.97
2018-10-19T00:55:51.821Z,119.47
2018-10-19T00:58:23.301Z,111.90
2018-10-19T01:00:55.570Z,112.77
2018-10-19T01:03:25.934Z,106.57
2018-10-19T01:05:56.517Z,107.00
2018-10-19T01:08:27.418Z,102.90
2018-10-19T01:10:58.313Z,108.80
2018-10-19T01:13:28.683Z,115.10
2018-10-19T01:15:59.127Z,110.13
2018-10-19T01:18:29.482Z,109.33
2018-10-19T01:20:59.821Z,112.97
2018-10-19T01:23:30.158Z,104.27
2018-10-19T01:26:00.471Z,114.40
2018-10-19T01:28:30.785Z,122.30
2018-10-19T01:31:01.078Z,112.43
2018-10-19T01:33:31.388Z,129.23
2018-10-19T01:36:01.795Z,124.93
2018-10-19T01:38:32.075Z,115.90
2018-10-19T01:41:02.514Z,118.23
2018-10-19T01:43:32.791Z,116.63
2018-10-19T01:46:03.125Z,119.60
2018-10-19T01:48:33.873Z,130.20
2018-10-19T01:51:04.228Z,136.40
2018-10-19T01:53:34.515Z,123.17
2018-10-19T01:56:04.890Z,125.70
2018-10-19T01:58:35.190Z,136.10
2018-10-19T02:01:05.594Z,132.17
2018-10-19T02:03:35.904Z,131.20
2018-10-19T02:06:06.264Z,134.73
2018-10-19T02:08:36.687Z,140.83
2018-10-19T02:11:07.471Z,146.30
2018-10-19T02:13:37.716Z,132.53
2018-10-19T02:16:08.074Z,133.03
2018-10-19T02:18:38.798Z,130.03
2018-10-19T02:21:09.204Z,122.60
2018-10-19T02:23:39.455Z,123.77
2018-10-19T02:26:09.778Z,123.53
2018-10-19T02:28:40.094Z,123.53
2018-10-19T02:31:10.427Z,134.47
2018-10-19T02:33:40.727Z,135.77
2018-10-19T02:36:11.046Z,131.50
2018-10-19T02:38:41.349Z,132.93
2018-10-19T02:41:11.681Z,135.70
2018-10-19T02:43:41.986Z,138.70
2018-10-19T02:46:12.272Z,144.80
2018-10-19T02:48:42.878Z,127.90
2018-10-19T02:51:13.270Z,129.90
2018-10-19T02:53:43.910Z,126.37
2018-10-19T02:56:14.207Z,118.87
2018-10-19T02:58:44.867Z,130.20
2018-10-19T03:01:15.278Z,130.30
2018-10-19T03:03:45.712Z,146.43
2018-10-19T03:06:16.043Z,158.20
2018-10-19T03:08:46.303Z,159.97
2018-10-19T03:11:16.639Z,142.17
2018-10-19T03:13:46.863Z,147.60
2018-10-19T03:16:17.187Z,146.73
2018-10-19T03:18:47.445Z,130.00
2018-10-19T03:21:17.833Z,143.60
2018-10-19T03:23:48.049Z,148.73
2018-10-19T03:26:18.393Z,145.20
2018-10-19T03:28:48.655Z,140.60
2018-10-19T03:31:19.027Z,143.87
2018-10-19T03:33:49.251Z,128.47
2018-10-19T03:36:19.650Z,135.70
2018-10-19T03:38:49.931Z,129.43
2018-10-19T03:41:20.270Z,127.43
2018-10-19T03:43:50.582Z,148.63
2018-10-19T03:46:21.781Z,142.07
2018-10-19T03:48:52.095Z,138.80
2018-10-19T03:51:22.420Z,142.53
2018-10-19T03:53:52.729Z,146.13
2018-10-19T03:56:23.055Z,149.47
2018-10-19T03:58:53.370Z,140.70
2018-10-19T04:01:23.692Z,136.40
2018-10-19T04:03:54.027Z,142.93
2018-10-19T04:06:24.369Z,146.32
2018-10-19T04:08:54.732Z,136.07
2018-10-19T04:11:25.057Z,149.85
2018-10-19T04:13:55.602Z,146.98
2018-10-19T04:16:25.891Z,135.78
2018-10-19T04:18:56.227Z,129.07
2018-10-19T04:21:26.555Z,147.50
2018-10-19T04:23:56.877Z,150.23
2018-10-19T04:26:27.209Z,139.20
2018-10-19T04:28:59.103Z,144.63
2018-10-19T04:31:29.622Z,148.62
2018-10-19T04:34:00.365Z,136.28
2018-10-19T04:36:31.674Z,148.60
2018-10-19T04:39:02.034Z,134.90
2018-10-19T04:41:32.715Z,141.62
2018-10-19T04:44:02.990Z,144.67
2018-10-19T04:46:34.054Z,141.88
2018-10-19T04:49:04.507Z,139.47
2018-10-19T04:51:35.282Z,148.30
2018-10-19T04:54:05.683Z,145.53
2018-10-19T04:56:36.059Z,143.20
2018-10-19T04:59:06.868Z,149.20
2018-10-19T05:01:37.221Z,147.57
2018-10-19T05:04:07.695Z,145.65
2018-10-19T05:06:38.367Z,141.45
2018-10-19T05:09:11.047Z,139.12
2018-10-19T05:11:41.481Z,154.68
2018-10-19T05:14:11.825Z,157.65
2018-10-19T05:16:43.287Z,142.05
2018-10-19T05:19:13.899Z,143.22
2018-10-19T05:21:44.532Z,149.18
2018-10-19T05:24:14.807Z,137.25
2018-10-19T05:26:45.318Z,139.55
2018-10-19T05:29:15.643Z,148.02
2018-10-19T05:31:46.007Z,149.30
2018-10-19T05:34:16.279Z,144.37
2018-10-19T05:36:46.611Z,143.57
2018-10-19T05:39:16.895Z,154.75
2018-10-19T05:41:47.210Z,141.77
2018-10-19T05:44:17.525Z,150.85
2018-10-19T05:46:47.794Z,156.55
2018-10-19T05:49:18.098Z,153.32
2018-10-19T05:51:48.402Z,147.78
2018-10-19T05:54:18.679Z,146.60
2018-10-19T05:56:48.982Z,137.28
2018-10-19T05:59:19.287Z,131.87
2018-10-19T06:01:49.894Z,140.35
2018-10-19T06:04:20.202Z,145.72
2018-10-19T06:06:50.537Z,132.00
2018-10-19T06:09:20.831Z,125.92
2018-10-19T06:11:51.141Z,129.85
2018-10-19T06:14:21.423Z,136.82
2018-10-19T06:16:51.742Z,137.65
2018-10-19T06:19:22.014Z,146.20
2018-10-19T06:21:52.351Z,138.92
2018-10-19T06:24:22.610Z,145.77
2018-10-19T06:26:52.938Z,145.47
2018-10-19T06:29:23.266Z,144.37
2018-10-19T06:31:53.648Z,140.95
2018-10-19T06:34:23.904Z,145.30
2018-10-19T06:36:54.202Z,146.72
2018-10-19T06:39:24.471Z,148.55
2018-10-19T06:41:54.748Z,145.97
2018-10-19T06:44:25.119Z,161.22
2018-10-19T06:46:55.633Z,152.72
2018-10-19T06:49:25.924Z,157.50
2018-10-19T06:51:56.217Z,163.50
2018-10-19T06:54:26.683Z,173.80
2018-10-19T06:56:56.949Z,180.07
2018-10-19T06:59:28.086Z,185.23
2018-10-19T07:01:59.021Z,201.27
2018-10-19T07:04:29.304Z,188.73
2018-10-19T07:06:59.641Z,234.40
2018-10-19T07:09:29.948Z,223.93
2018-10-19T07:12:00.377Z,229.97
2018-10-19T07:14:31.018Z,246.77
2018-10-19T07:17:01.385Z,209.23
2018-10-19T07:19:31.996Z,210.80
2018-10-19T07:22:02.258Z,213.67
2018-10-19T07:24:32.986Z,194.40
2018-10-19T07:27:03.294Z,215.90
2018-10-19T07:29:34.329Z,221.70
2018-10-19T07:32:04.584Z,208.57
2018-10-19T07:34:35.002Z,201.10
2018-10-19T07:37:05.463Z,194.50
2018-10-19T07:39:35.773Z,186.77
2018-10-19T07:42:06.460Z,186.93
2018-10-19T07:44:36.917Z,181.27
2018-10-19T07:47:07.310Z,193.03
2018-10-19T07:49:37.769Z,197.63
2018-10-19T07:52:08.061Z,191.93
2018-10-19T07:54:38.381Z,189.43
2018-10-19T07:57:08.690Z,178.10
2018-10-19T07:59:39.015Z,173.63
2018-10-19T08:02:09.411Z,177.67
2018-10-19T08:04:39.722Z,171.07
2018-10-19T08:07:10.051Z,169.53
2018-10-19T08:09:40.382Z,170.97
2018-10-19T08:12:10.798Z,163.93
2018-10-19T08:14:41.151Z,156.97
2018-10-19T08:17:11.977Z,152.33
2018-10-19T08:19:42.211Z,159.73
2018-10-19T08:22:12.536Z,146.17
2018-10-19T08:24:42.989Z,145.43
2018-10-19T08:27:13.378Z,159.77
2018-10-19T08:29:43.670Z,140.47
2018-10-19T08:32:14.046Z,146.40
2018-10-19T08:34:44.491Z,137.30
2018-10-19T08:37:14.791Z,136.47
2018-10-19T08:39:45.443Z,144.37
2018-10-19T08:42:15.749Z,135.83
2018-10-19T08:44:46.042Z,135.87
2018-10-19T08:47:16.428Z,130.30
2018-10-19T08:49:46.691Z,128.30
2018-10-19T08:52:17.026Z,123.57
2018-10-19T08:54:47.345Z,131.00
2018-10-19T08:57:17.718Z,125.47
2018-10-19T08:59:47.979Z,119.67
2018-10-19T09:02:18.399Z,130.33
2018-10-19T09:04:48.799Z,123.03
2018-10-19T09:07:19.104Z,123.43
2018-10-19T09:09:49.427Z,124.90
2018-10-19T09:12:19.773Z,122.27
2018-10-19T09:14:57.334Z,125.70
2018-10-19T09:17:27.999Z,127.37
2018-10-19T09:19:58.315Z,126.60
2018-10-19T09:22:28.973Z,131.63
2018-10-19T09:24:59.273Z,120.53
2018-10-19T09:27:29.895Z,120.83
2018-10-19T09:30:00.373Z,126.40
2018-10-19T09:32:30.846Z,126.83
2018-10-19T09:35:01.228Z,126.77
2018-10-19T09:37:31.721Z,123.00
2018-10-19T09:40:02.077Z,127.00
2018-10-19T09:42:32.449Z,126.13
2018-10-19T09:45:02.800Z,120.03
2018-10-19T09:47:33.336Z,125.87
2018-10-19T09:50:03.807Z,127.20
2018-10-19T09:52:34.097Z,138.37
2018-10-19T09:55:04.434Z,118.90
2018-10-19T09:57:34.942Z,126.27
2018-10-19T10:00:09.096Z,126.90
2018-10-19T10:02:39.392Z,120.30
2018-10-19T10:05:09.844Z,117.93
2018-10-19T10:07:40.216Z,117.90
2018-10-19T10:10:10.526Z,119.33
2018-10-19T10:12:40.819Z,125.77
2018-10-19T10:15:11.287Z,113.40
2018-10-19T10:17:41.891Z,119.93
2018-10-19T10:20:12.219Z,117.03
2018-10-19T10:22:43.217Z,119.33
2018-10-19T10:25:13.889Z,120.40
2018-10-19T10:27:44.201Z,118.90
2018-10-19T10:30:14.624Z,116.70
2018-10-19T10:32:45.166Z,113.80
2018-10-19T10:35:15.545Z,118.57
2018-10-19T10:37:45.976Z,114.63
2018-10-19T10:40:16.318Z,114.60
2018-10-19T10:42:46.614Z,114.87
2018-10-19T10:45:16.926Z,105.87
2018-10-19T10:47:47.222Z,119.57
2018-10-19T10:50:17.550Z,111.80
2018-10-19T10:52:48.040Z,108.60
2018-10-19T10:55:18.450Z,107.33
2018-10-19T10:57:48.698Z,102.57
2018-10-19T11:00:19.047Z,104.90
2018-10-19T11:02:49.323Z,113.73
2018-10-19T11:05:19.687Z,108.70
2018-10-19T11:07:49.971Z,110.00
2018-10-19T11:10:20.278Z,105.50
2018-10-19T11:12:50.834Z,105.60
2018-10-19T11:15:21.612Z,108.50
2018-10-19T11:17:54.940Z,105.30
2018-10-19T11:20:25.258Z,107.33
2018-10-19T11:22:55.558Z,103.53
2018-10-19T11:25:25.884Z,99.73
2018-10-19T11:27:56.200Z,96.33
2018-10-19T11:30:27.045Z,108.43
2018-10-19T11:32:57.378Z,102.10
2018-10-19T11:35:28.384Z,103.47
2018-10-19T11:37:59.087Z,99.17
2018-10-19T11:40:31.185Z,104.03
2018-10-19T11:43:01.540Z,104.30
2018-10-19T11:45:33.122Z,99.67
2018-10-19T11:48:03.523Z,100.70
2018-10-19T11:50:34.041Z,102.20
2018-10-19T11:53:04.459Z,103.70
2018-10-19T11:55:35.180Z,96.47
2018-10-19T11:58:05.618Z,96.33
2018-10-19T12:00:36.107Z,98.53
2018-10-19T12:03:06.481Z,93.93
2018-10-19T12:05:37.111Z,95.87
2018-10-19T12:08:08.795Z,93.90
2018-10-19T12:10:41.562Z,99.27
2018-10-19T12:13:11.961Z,92.03
2018-10-19T12:15:42.210Z,92.70
2018-10-19T12:18:12.985Z,100.23
2018-10-19T12:20:43.634Z,92.17
2018-10-19T12:23:13.924Z,98.07
2018-10-19T12:25:44.294Z,83.90
2018-10-19T12:28:14.632Z,91.13
2018-10-19T12:30:45.371Z,86.20
2018-10-19T12:33:15.755Z,94.70
2018-10-19T12:35:46.346Z,89.07
2018-10-19T12:38:16.613Z,84.60
2018-10-19T12:40:46.999Z,85.83
2018-10-19T12:43:17.303Z,87.20
2018-10-19T12:46:31.954Z,78.20
2018-10-19T12:49:02.309Z,85.00
2018-10-19T12:51:32.702Z,81.40
2018-10-19T12:54:03.062Z,81.63
2018-10-19T12:56:33.384Z,79.67
2018-10-19T12:59:03.716Z,77.90
2018-10-19T13:01:34.391Z,80.07
2018-10-19T13:04:05.167Z,80.93
2018-10-19T13:06:36.065Z,82.30
2018-10-19T13:09:11.766Z,76.27
2018-10-19T13:11:42.036Z,77.33
2018-10-19T13:14:12.629Z,78.17
2018-10-19T13:16:43.112Z,79.17
2018-10-19T13:19:13.521Z,89.37
2018-10-19T13:21:44.075Z,87.37
2018-10-19T13:24:14.702Z,80.37
2018-10-19T13:26:45.081Z,85.47
2018-10-19T13:29:15.396Z,84.60
2018-10-19T13:31:47.809Z,87.87
2018-10-19T13:34:18.277Z,88.77
2018-10-19T13:36:48.640Z,88.20
2018-10-19T13:39:18.926Z,94.03
2018-10-19T13:41:49.275Z,84.50
2018-10-19T13:44:21.295Z,91.63
2018-10-19T13:46:55.308Z,87.07
2018-10-19T13:49:27.307Z,87.23
2018-10-19T13:51:59.470Z,90.70
2018-10-19T13:54:31.102Z,80.00
2018-10-19T13:57:02.588Z,78.33
2018-10-19T13:59:33.776Z,82.10
2018-10-19T14:02:05.260Z,79.33
2018-10-19T14:04:36.233Z,86.90
2018-10-19T14:07:07.940Z,79.67
2018-10-19T14:09:39.446Z,79.53
2018-10-19T14:12:11.860Z,78.23
2018-10-19T14:14:42.311Z,77.13
2018-10-19T14:17:12.663Z,84.17
2018-10-19T14:19:43.070Z,79.07
2018-10-19T14:22:13.794Z,77.63
2018-10-19T14:24:44.126Z,88.00
2018-10-19T14:27:14.647Z,76.43
2018-10-19T14:29:45.152Z,81.47
2018-10-19T14:32:16.842Z,80.53
2018-10-19T14:34:47.477Z,85.40
2018-10-19T14:37:17.771Z,83.00
2018-10-19T14:39:48.087Z,84.63
2018-10-19T14:42:19.286Z,88.20
2018-10-19T14:44:52.190Z,97.63
2018-10-19T14:47:23.083Z,98.00
2018-10-19T14:49:55.320Z,89.77
2018-10-19T14:52:27.230Z,89.97
2018-10-19T14:54:59.138Z,90.27
2018-10-19T14:57:31.153Z,107.97
2018-10-19T15:00:02.575Z,94.23
2018-10-19T15:02:33.117Z,94.43
2018-10-19T15:05:03.595Z,101.43
2018-10-19T15:07:34.303Z,106.63
2018-10-19T15:10:06.510Z,103.50
2018-10-19T15:12:37.230Z,107.50
2018-10-19T15:15:08.077Z,116.27
2018-10-19T15:17:40.169Z,110.43
2018-10-19T15:20:12.800Z,113.03
2018-10-19T15:22:43.687Z,113.60
2018-10-19T15:25:14.510Z,112.33
2018-10-19T15:27:46.378Z,110.90
2018-10-19T15:30:18.529Z,111.83
2018-10-19T15:32:48.802Z,111.17
2018-10-19T15:35:19.173Z,116.60
2018-10-19T15:37:49.469Z,117.47
2018-10-19T15:40:19.802Z,112.93
2018-10-19T15:42:50.084Z,111.83
2018-10-19T15:45:20.410Z,118.63
2018-10-19T15:47:50.695Z,113.60
2018-10-19T15:50:21.010Z,116.50
2018-10-19T15:52:51.315Z,119.70
2018-10-19T15:55:21.683Z,124.57
2018-10-19T15:57:51.996Z,108.13
2018-10-19T16:00:22.573Z,100.33
2018-10-19T16:02:52.856Z,96.83
2018-10-19T16:05:23.294Z,97.27
2018-10-19T16:07:53.569Z,95.27
2018-10-19T16:10:23.947Z,93.20
2018-10-19T16:12:54.179Z,99.53
2018-10-19T16:15:24.495Z,100.07
2018-10-19T16:17:54.824Z,107.50
2018-10-19T16:20:25.270Z,98.77
2018-10-19T16:22:55.539Z,99.50
2018-10-19T16:25:25.898Z,108.90
2018-10-19T16:27:56.650Z,99.97
2018-10-19T16:30:27.023Z,105.67
2018-10-19T16:32:57.348Z,109.50
2018-10-19T16:35:27.936Z,107.23
2018-10-19T16:37:58.203Z,108.73
2018-10-19T16:40:29.043Z,111.20
2018-10-19T16:42:59.294Z,111.13
2018-10-19T16:45:29.664Z,105.13
2018-10-19T16:47:59.998Z,107.03
2018-10-19T16:50:30.317Z,114.30
2018-10-19T16:53:00.856Z,107.10
2018-10-19T16:55:31.210Z,108.03
2018-10-19T16:58:01.541Z,111.37
2018-10-19T17:00:32.110Z,113.57
2018-10-19T17:03:02.539Z,110.50
2018-10-19T17:05:32.895Z,114.23
2018-10-19T17:08:03.191Z,117.57
2018-10-19T17:10:34.006Z,108.87
2018-10-19T17:13:04.307Z,112.53
2018-10-19T17:15:35.062Z,116.23
2018-10-19T17:18:05.441Z,116.53
2018-10-19T17:20:35.913Z,115.33
2018-10-19T17:23:06.355Z,120.00
2018-10-19T17:25:37.174Z,115.13
2018-10-19T17:28:07.474Z,117.50
2018-10-19T17:30:37.851Z,114.00
2018-10-19T17:33:08.251Z,119.77
2018-10-19T17:35:38.548Z,127.97
2018-10-19T17:38:08.809Z,116.57
2018-10-19T17:40:39.152Z,125.20
2018-10-19T17:43:18.085Z,124.50
2018-10-19T17:45:50.340Z,127.43
2018-10-19T17:48:20.622Z,131.50
2018-10-19T17:50:51.073Z,121.83
2018-10-19T17:53:21.512Z,124.47
2018-10-19T17:55:51.827Z,125.77
2018-10-19T17:58:22.191Z,123.00
2018-10-19T18:00:52.555Z,124.50
2018-10-19T18:03:22.880Z,135.77
2018-10-19T18:05:53.439Z,124.43
2018-10-19T18:08:23.754Z,127.07
2018-10-19T18:10:54.147Z,126.73
2018-10-19T18:13:24.414Z,123.40
2018-10-19T18:15:54.761Z,131.00
2018-10-19T18:18:25.077Z,123.57
2018-10-19T18:20:55.478Z,129.53
2018-10-19T18:23:26.166Z,133.00
2018-10-19T18:25:56.282Z,131.57
2018-10-19T18:28:27.164Z,139.60
2018-10-19T18:30:58.133Z,134.33
2018-10-19T18:33:28.526Z,131.13
2018-10-19T18:35:59.043Z,139.33
2018-10-19T18:38:30.091Z,138.00
2018-10-19T18:41:00.568Z,143.30
2018-10-19T18:43:30.976Z,140.30
2018-10-19T18:46:01.413Z,134.13
2018-10-19T18:48:32.203Z,132.67
2018-10-19T18:51:02.694Z,136.30
2018-10-19T18:53:33.179Z,138.43
2018-10-19T18:56:03.729Z,140.00
2018-10-19T18:58:34.027Z,142.80
2018-10-19T19:01:04.373Z,138.57
2018-10-19T19:03:35.401Z,155.20
2018-10-19T19:06:06.010Z,142.50
2018-10-19T19:08:36.477Z,139.47
2018-10-19T19:11:07.563Z,142.00
2018-10-19T19:13:43.355Z,137.10
2018-10-19T19:16:20.126Z,148.80
2018-10-19T19:18:51.444Z,145.50
2018-10-19T19:21:23.156Z,145.63
2018-10-19T19:23:59.419Z,154.00
2018-10-19T19:26:31.321Z,147.10
2018-10-19T19:29:02.154Z,154.23
2018-10-19T19:31:33.046Z,153.07
2018-10-19T19:34:09.496Z,141.30
2018-10-19T19:36:40.185Z,141.10
2018-10-19T19:39:11.481Z,136.73
2018-10-19T19:41:47.618Z,137.43
2018-10-19T19:44:18.169Z,154.57
2018-10-19T19:46:49.150Z,147.97
2018-10-19T19:49:25.641Z,146.73
2018-10-19T19:51:57.246Z,148.97
2018-10-19T19:54:28.887Z,145.43
2018-10-19T19:57:00.654Z,148.43
2018-10-19T19:59:31.659Z,154.70
2018-10-19T20:02:02.629Z,146.20
2018-10-19T20:04:33.879Z,137.37
2018-10-19T20:07:05.228Z,152.37
2018-10-19T20:09:37.951Z,144.40
2018-10-19T20:12:10.163Z,149.20
2018-10-19T20:14:42.127Z,151.47
2018-10-19T20:17:12.937Z,158.70
2018-10-19T20:19:44.693Z,156.90
2018-10-19T20:22:15.630Z,155.73
2018-10-19T20:24:46.658Z,149.90
2018-10-19T20:27:18.775Z,145.53
2018-10-19T20:29:50.093Z,151.53
2018-10-19T20:32:21.306Z,150.27
2018-10-19T20:34:52.974Z,145.07
2018-10-19T20:37:23.725Z,147.07
2018-10-19T20:39:55.348Z,142.83
2018-10-19T20:42:26.690Z,153.37
2018-10-19T20:44:57.913Z,148.67
2018-10-19T20:47:29.592Z,150.73
2018-10-19T20:50:01.609Z,152.27
2018-10-19T20:52:33.517Z,158.40
2018-10-19T20:55:04.430Z,167.93
2018-10-19T20:57:35.470Z,166.10
2018-10-19T21:00:08.339Z,166.63
2018-10-19T21:02:39.648Z,153.17
2018-10-19T21:05:12.602Z,154.83
2018-10-19T21:07:42.993Z,167.00
2018-10-19T21:10:14.630Z,164.40
2018-10-19T21:12:46.255Z,159.37
2018-10-19T21:15:16.955Z,153.47
2018-10-19T21:17:47.803Z,149.57
2018-10-19T21:20:18.564Z,144.80
2018-10-19T21:22:49.578Z,143.10
2018-10-19T21:25:21.259Z,144.57
2018-10-19T21:27:53.081Z,152.13
2018-10-19T21:30:23.452Z,155.00
2018-10-19T21:32:54.226Z,154.03
2018-10-19T21:35:25.248Z,140.67
2018-10-19T21:37:56.076Z,149.67
2018-10-19T21:40:28.303Z,141.40
2018-10-19T21:42:59.326Z,139.93
2018-10-19T21:45:31.389Z,147.00
2018-10-19T21:48:02.134Z,156.27
2018-10-19T21:50:33.231Z,150.07
2018-10-19T21:53:04.618Z,153.13
2018-10-19T21:55:35.347Z,159.40
2018-10-19T21:58:06.458Z,157.43
2018-10-19T22:00:37.215Z,159.20
2018-10-19T22:03:08.004Z,159.60
2018-10-19T22:05:38.958Z,169.40
2018-10-19T22:08:09.760Z,166.37
2018-10-19T22:10:40.190Z,176.97
2018-10-19T22:13:11.567Z,167.77
2018-10-19T22:15:42.553Z,158.33
2018-10-19T22:18:14.605Z,157.47
2018-10-19T22:20:45.703Z,153.87
2018-10-19T22:23:17.184Z,153.43
2018-10-19T22:25:47.941Z,164.43
2018-10-19T22:28:19.111Z,154.10
2018-10-19T22:30:50.018Z,153.77
2018-10-19T22:33:21.139Z,155.73
2018-10-19T22:35:52.805Z,165.27
2018-10-19T22:38:23.435Z,162.87
2018-10-19T22:40:54.493Z,149.43
2018-10-19T22:43:25.450Z,150.83
2018-10-19T22:45:57.118Z,145.33
2018-10-19T22:48:28.566Z,153.60
2018-10-19T22:50:59.622Z,150.77
2018-10-19T22:53:30.979Z,155.23
2018-10-19T22:56:02.892Z,143.70
2018-10-19T22:58:34.118Z,138.03
2018-10-19T23:01:05.619Z,147.23
2018-10-19T23:03:37.000Z,144.73
2018-10-19T23:06:08.090Z,142.63
2018-10-19T23:08:39.409Z,154.47
2018-10-19T23:11:10.140Z,147.10
2018-10-19T23:13:40.679Z,154.17
2018-10-19T23:16:11.131Z,146.10
2018-10-19T23:18:41.426Z,150.17
2018-10-19T23:21:12.152Z,144.97
2018-10-19T23:23:42.984Z,142.20
2018-10-19T23:26:13.271Z,150.50
2018-10-19T23:28:44.877Z,161.47
2018-10-19T23:31:15.372Z,161.40
2018-10-19T23:33:45.970Z,167.20
2018-10-19T23:36:16.593Z,160.90
2018-10-19T23:38:48.151Z,148.93
2018-10-19T23:41:18.670Z,137.27
2018-10-19T23:43:49.169Z,147.03
2018-10-19T23:46:19.453Z,138.90
2018-10-19T23:48:49.738Z,139.27
2018-10-19T23:51:20.032Z,133.40
2018-10-19T23:53:50.431Z,140.40
2018-10-19T23:56:20.806Z,133.27
2018-10-19T23:58:51.123Z,136.20
